| time (UTC) | temp C | wind direction | speed KPH | gust KPH | rain 1hr cm | rain 24hr cm | rain mn cm | humidity % | barometer mb |
| 20260507101155 | 16 | 360 | 17.7 | 0.0 | 0.00 | 0.00 | 0.00 | 97 | 1016.0 |
| 20260507095454 | 16 | 360 | 17.7 | 0.0 | 0.00 | 0.00 | 0.00 | 97 | 1016.0 |
| 20260507093753 | 16 | 360 | 17.7 | 0.0 | 0.00 | 0.00 | 0.00 | 97 | 1016.0 |
| 20260507092052 | 16 | 360 | 17.7 | 0.0 | 0.00 | 0.00 | 0.00 | 97 | 1015.0 |
| 20260507090351 | 16 | 360 | 17.7 | 0.0 | 0.00 | 0.00 | 0.00 | 96 | 1015.0 |
| 20260507084650 | 16 | 360 | 17.7 | 0.0 | 0.00 | 0.00 | 0.00 | 96 | 1015.0 |
| 20260507082947 | 16 | 360 | 17.7 | 0.0 | 0.00 | 0.00 | 0.00 | 95 | 1015.0 |
| 20260507081245 | 16 | 360 | 17.7 | 0.0 | 0.00 | 0.00 | 0.00 | 94 | 1015.0 |
| 20260507075545 | 16 | 360 | 17.7 | 0.0 | 0.00 | 0.00 | 0.00 | 93 | 1015.0 |
| 20260507073844 | 16 | 360 | 17.7 | 0.0 | 0.00 | 0.00 | 0.00 | 92 | 1015.0 |
| 20260507072144 | 17 | 360 | 17.7 | 0.0 | 0.00 | 0.00 | 0.00 | 90 | 1016.0 |
| 20260507070443 | 17 | 360 | 17.7 | 0.0 | 0.00 | 0.00 | 0.00 | 88 | 1016.0 |
| 20260507064743 | 17 | 360 | 17.7 | 0.0 | 0.00 | 0.00 | 0.00 | 88 | 1016.0 |
| 20260507063042 | 17 | 360 | 17.7 | 0.0 | 0.00 | 0.00 | 0.00 | 88 | 1016.0 |
| 20260507061342 | 17 | 360 | 17.7 | 0.0 | 0.00 | 0.00 | 0.00 | 88 | 1016.0 |
| 20260507055627 | 17 | 360 | 17.7 | 0.0 | 0.00 | 0.00 | 0.00 | 88 | 1016.0 |
| 20260507053927 | 17 | 360 | 17.7 | 0.0 | 0.00 | 0.00 | 0.00 | 87 | 1016.0 |
| 20260507052225 | 17 | 360 | 17.7 | 0.0 | 0.00 | 0.00 | 0.00 | 86 | 1017.0 |
| 20260507050525 | 17 | 360 | 17.7 | 0.0 | 0.00 | 0.00 | 0.00 | 84 | 1017.0 |
| 20260507044823 | 17 | 360 | 17.7 | 0.0 | 0.00 | 0.00 | 0.00 | 83 | 1017.0 |
| 20260507043122 | 17 | 360 | 17.7 | 0.0 | 0.00 | 0.00 | 0.00 | 82 | 1017.0 |
| 20260507041422 | 17 | 360 | 17.7 | 0.0 | 0.00 | 0.00 | 0.00 | 80 | 1017.0 |
| 20260507035720 | 17 | 360 | 17.7 | 0.0 | 0.00 | 0.00 | 0.00 | 78 | 1017.0 |
| 20260507034019 | 17 | 360 | 17.7 | 0.0 | 0.00 | 0.00 | 0.00 | 78 | 1017.0 |
| 20260507032318 | 17 | 360 | 17.7 | 0.0 | 0.00 | 0.00 | 0.00 | 78 | 1017.0 |
| 20260507030618 | 17 | 360 | 17.7 | 0.0 | 0.00 | 0.00 | 0.00 | 78 | 1017.0 |
| 20260507024918 | 17 | 360 | 17.7 | 0.0 | 0.00 | 0.00 | 0.00 | 77 | 1017.0 |
| 20260507023215 | 18 | 360 | 17.7 | 0.0 | 0.00 | 0.00 | 0.00 | 75 | 1017.0 |
| 20260507021515 | 18 | 360 | 17.7 | 0.0 | 0.00 | 0.00 | 0.00 | 71 | 1016.0 |
| 20260507015814 | 18 | 360 | 17.7 | 0.0 | 0.00 | 0.00 | 0.00 | 66 | 1016.0 |
| 20260507014113 | 18 | 360 | 17.7 | 0.0 | 0.00 | 0.00 | 0.00 | 62 | 1016.0 |
| 20260507012412 | 18 | 360 | 17.7 | 0.0 | 0.00 | 0.00 | 0.00 | 58 | 1015.0 |
| 20260507010712 | 18 | 360 | 17.7 | 0.0 | 0.00 | 0.00 | 0.00 | 53 | 1015.0 |
| 20260507005011 | 18 | 360 | 17.7 | 0.0 | 0.00 | 0.00 | 0.00 | 49 | 1015.0 |
| 20260507003311 | 19 | 360 | 17.7 | 0.0 | 0.00 | 0.00 | 0.00 | 46 | 1014.0 |
| 20260507001611 | 20 | 360 | 17.7 | 0.0 | 0.00 | 0.00 | 0.00 | 46 | 1013.0 |
| 20260506235910 | 20 | 360 | 17.7 | 0.0 | 0.00 | 0.00 | 0.00 | 46 | 1013.0 |
| 20260506234208 | 21 | 360 | 17.7 | 0.0 | 0.00 | 0.00 | 0.00 | 46 | 1013.0 |
| 20260506232507 | 21 | 360 | 17.7 | 0.0 | 0.00 | 0.00 | 0.00 | 46 | 1012.0 |
| 20260506230807 | 22 | 360 | 17.7 | 0.0 | 0.00 | 0.00 | 0.00 | 46 | 1012.0 |
| 20260506225106 | 22 | 360 | 17.7 | 0.0 | 0.00 | 0.00 | 0.00 | 46 | 1012.0 |
| 20260506223404 | 23 | 360 | 17.7 | 0.0 | 0.00 | 0.00 | 0.00 | 46 | 1011.0 |
| 20260506221704 | 23 | 360 | 17.7 | 0.0 | 0.00 | 0.00 | 0.00 | 46 | 1010.0 |
| 20260506220003 | 24 | 360 | 17.7 | 0.0 | 0.00 | 0.00 | 0.00 | 46 | 1010.0 |
| 20260506214303 | 25 | 360 | 17.7 | 0.0 | 0.00 | 0.00 | 0.00 | 46 | 1010.0 |
| 20260506212602 | 25 | 360 | 17.7 | 0.0 | 0.00 | 0.00 | 0.00 | 46 | 1009.0 |
| 20260506210902 | 26 | 360 | 17.7 | 0.0 | 0.00 | 0.00 | 0.00 | 46 | 1008.0 |
| 20260506205201 | 26 | 360 | 17.7 | 0.0 | 0.00 | 0.00 | 0.00 | 47 | 1009.0 |
| 20260506203501 | 26 | 360 | 17.7 | 0.0 | 0.00 | 0.00 | 0.00 | 48 | 1009.0 |
| 20260506201800 | 25 | 360 | 17.7 | 0.0 | 0.00 | 0.00 | 0.00 | 52 | 1009.0 |
| 20260506200100 | 24 | 0 | 9.7 | 0.0 | 0.00 | 0.00 | 0.00 | 56 | 1009.0 |
| 20260506194359 | 24 | 0 | 9.7 | 0.0 | 0.00 | 0.00 | 0.00 | 56 | 1009.0 |
| 20260506192659 | 24 | 0 | 9.7 | 0.0 | 0.00 | 0.00 | 0.00 | 57 | 1009.0 |
| 20260506190957 | 24 | 0 | 9.7 | 0.0 | 0.00 | 0.00 | 0.00 | 57 | 1009.0 |
| 20260506185255 | 25 | 0 | 8.0 | 0.0 | 0.00 | 0.00 | 0.00 | 57 | 1010.0 |
| 20260506183555 | 23 | 0 | 8.0 | 0.0 | 0.00 | 0.00 | 0.00 | 62 | 1010.0 |
| 20260506181854 | 23 | 0 | 8.0 | 0.0 | 0.00 | 0.00 | 0.00 | 63 | 1011.0 |
| 20260506180153 | 23 | 160 | 8.0 | 0.0 | 0.00 | 0.00 | 0.00 | 65 | 1011.0 |
| 20260506174451 | 22 | 160 | 8.0 | 0.0 | 0.00 | 0.00 | 0.00 | 64 | 1011.0 |
| 20260506172751 | 23 | 160 | 8.0 | 0.0 | 0.00 | 0.00 | 0.00 | 64 | 1012.0 |
| 20260506171050 | 23 | 160 | 8.0 | 0.0 | 0.00 | 0.00 | 0.00 | 64 | 1012.0 |
| 20260506165349 | 22 | 160 | 9.7 | 0.0 | 0.00 | 0.00 | 0.00 | 69 | 1012.0 |
| 20260506163649 | 22 | 160 | 9.7 | 0.0 | 0.00 | 0.00 | 0.00 | 70 | 1013.0 |
| 20260506161948 | 22 | 160 | 9.7 | 0.0 | 0.00 | 0.00 | 0.00 | 70 | 1014.0 |
| 20260506160248 | 22 | 0 | 6.4 | 0.0 | 0.00 | 0.00 | 0.00 | 70 | 1014.0 |
| 20260506154546 | 22 | 0 | 6.4 | 0.0 | 0.00 | 0.00 | 0.00 | 71 | 1014.0 |
| 20260506152846 | 22 | 0 | 6.4 | 0.0 | 0.00 | 0.00 | 0.00 | 71 | 1015.0 |
| 20260506151145 | 22 | 0 | 6.4 | 0.0 | 0.00 | 0.00 | 0.00 | 71 | 1015.0 |
| 20260506145445 | 22 | 0 | 6.4 | 0.0 | 0.00 | 0.00 | 0.00 | 72 | 1015.0 |
| 20260506143744 | 18 | 0 | 6.4 | 0.0 | 0.00 | 0.00 | 0.00 | 90 | 1015.0 |
| 20260506142044 | 18 | 0 | 1.6 | 0.0 | 0.00 | 0.00 | 0.00 | 90 | 1016.0 |
| 20260506140343 | 19 | 0 | 3.2 | 0.0 | 0.00 | 0.00 | 0.00 | 90 | 1016.0 |
| 20260506134642 | 20 | 0 | 3.2 | 0.0 | 0.00 | 0.00 | 0.00 | 90 | 1016.0 |
| 20260506132937 | 17 | 20 | 6.4 | 0.0 | 0.00 | 0.00 | 0.00 | 96 | 1016.0 |
| 20260506131236 | 17 | 20 | 6.4 | 0.0 | 0.00 | 0.00 | 0.00 | 96 | 1016.0 |
| 20260506125536 | 17 | 20 | 6.4 | 0.0 | 0.00 | 0.00 | 0.00 | 96 | 1016.0 |
| 20260506123834 | 17 | 20 | 6.4 | 0.0 | 0.00 | 0.00 | 0.00 | 96 | 1016.0 |
| 20260506122133 | 17 | 20 | 6.4 | 0.0 | 0.00 | 0.00 | 0.00 | 96 | 1017.0 |
| 20260506120433 | 17 | 20 | 6.4 | 0.0 | 0.00 | 0.00 | 0.00 | 97 | 1017.0 |
| 20260506114732 | 17 | 20 | 6.4 | 0.0 | 0.00 | 0.00 | 0.00 | 96 | 1017.0 |
| 20260506113031 | 17 | 20 | 6.4 | 0.0 | 0.00 | 0.00 | 0.00 | 95 | 1017.0 |
| 20260506111331 | 17 | 20 | 6.4 | 0.0 | 0.00 | 0.00 | 0.00 | 93 | 1016.0 |
| 20260506105631 | 17 | 20 | 6.4 | 0.0 | 0.00 | 0.00 | 0.00 | 92 | 1016.0 |
| 20260506103929 | 17 | 20 | 6.4 | 0.0 | 0.00 | 0.00 | 0.00 | 92 | 1016.0 |
| 20260506102228 | 17 | 20 | 6.4 | 0.0 | 0.00 | 0.00 | 0.00 | 92 | 1016.0 |